Time;durP1;ratioP1;P1;durP2;ratioP2;P2;SDS_P1;SDS_P2;PMS_P1;PMS_P2;Temp;Humidity;BMP_temperature;BMP_pressure;BME280_temperature;BME280_humidity;BME280_pressure;Samples;Min_cycle;Max_cycle;Signal;HPM_P1;HPM_P2
2022/11/22 00:01:06;;;;;;;16.12;9.13;;;;;;;;;;4391833;32;71695;-63
2022/11/22 00:03:53;;;;;;;13.02;8.60;;;;;;;;;;4388735;32;66225;-63
2022/11/22 00:06:40;;;;;;;16.55;10.38;;;;;;;;;;4414857;32;67417;-63
2022/11/22 00:09:27;;;;;;;;;;;;;;;;;;4414996;32;67746;-62
2022/11/22 00:12:13;;;;;;;16.17;9.75;;;;;;;;;;4402861;32;71691;-62
2022/11/22 00:15:00;;;;;;;16.35;9.60;;;;;;;;;;4391802;32;65858;-62
2022/11/22 00:17:46;;;;;;;15.35;9.95;;;;;;;;;;4402553;32;67622;-62
2022/11/22 00:20:33;;;;;;;14.55;9.25;;;;;;;;;;4392041;32;59369;-62
2022/11/22 00:23:20;;;;;;;14.13;9.15;;;;;;;;;;4388672;32;70943;-63
2022/11/22 00:26:10;;;;;;;13.13;8.80;;;;;;;;;;4390855;32;69280;-61
2022/11/22 00:28:57;;;;;;;14.07;8.70;;;;;;;;;;4399754;32;68891;-62
2022/11/22 00:31:44;;;;;;;13.82;8.45;;;;;;;;;;4402532;32;60418;-63
2022/11/22 00:34:30;;;;;;;15.38;8.38;;;;;;;;;;4402194;32;70554;-62
2022/11/22 00:37:17;;;;;;;;;;;;;;;;;;4388931;32;69825;-62
2022/11/22 00:40:04;;;;;;;16.42;9.52;;;;;;;;;;4402413;32;68018;-62
2022/11/22 00:42:51;;;;;;;15.43;9.52;;;;;;;;;;4401974;32;70880;-63
2022/11/22 00:45:39;;;;;;;;;;;;;;;;;;4378229;32;64332;-62
2022/11/22 00:48:26;;;;;;;14.10;8.43;;;;;;;;;;4402370;32;67637;-62
2022/11/22 00:51:12;;;;;;;;;;;;;;;;;;4378434;32;59849;-63
2022/11/22 00:53:59;;;;;;;14.30;8.57;;;;;;;;;;4401964;32;69866;-63
2022/11/22 00:56:46;;;;;;;16.00;8.30;;;;;;;;;;4378270;32;66820;-63
2022/11/22 00:59:32;;;;;;;;;;;;;;;;;;4402267;32;66555;-62
2022/11/22 01:02:19;;;;;;;16.15;7.97;;;;;;;;;;4402223;32;59228;-62
2022/11/22 01:05:06;;;;;;;13.70;7.25;;;;;;;;;;4401800;32;70589;-63
2022/11/22 01:07:52;;;;;;;;;;;;;;;;;;4391464;32;68225;-63
2022/11/22 01:10:39;;;;;;;15.75;7.68;;;;;;;;;;4401905;32;67752;-62
2022/11/22 01:13:27;;;;;;;17.27;7.90;;;;;;;;;;4388492;32;72355;-63
2022/11/22 01:16:14;;;;;;;12.52;7.37;;;;;;;;;;4367137;32;66025;-63
2022/11/22 01:19:01;;;;;;;12.05;6.85;;;;;;;;;;4388631;32;67250;-63
2022/11/22 01:21:48;;;;;;;13.35;6.32;;;;;;;;;;4413807;32;67727;-62
2022/11/22 01:24:34;;;;;;;12.85;7.00;;;;;;;;;;4380100;32;70912;-63
2022/11/22 01:27:21;;;;;;;12.27;6.72;;;;;;;;;;4401723;32;65925;-63
2022/11/22 01:30:08;;;;;;;11.48;6.95;;;;;;;;;;4388231;32;68420;-63
2022/11/22 01:32:54;;;;;;;;;;;;;;;;;;4378095;32;60835;-62
2022/11/22 01:35:40;;;;;;;10.63;6.60;;;;;;;;;;4399206;32;68271;-62
2022/11/22 01:38:27;;;;;;;12.95;7.03;;;;;;;;;;4401334;32;69602;-63
2022/11/22 01:41:13;;;;;;;12.85;6.80;;;;;;;;;;4401552;32;67469;-63
2022/11/22 01:44:23;;;;;;;11.60;6.87;;;;;;;;;;4401604;32;71387;-62
2022/11/22 01:47:22;;;;;;;13.38;7.85;;;;;;;;;;4413249;32;70527;-62
2022/11/22 01:50:14;;;;;;;15.48;9.05;;;;;;;;;;4413277;32;69745;-62
2022/11/22 01:53:05;;;;;;;14.95;9.02;;;;;;;;;;4390603;32;67718;-62
2022/11/22 01:55:52;;;;;;;15.85;9.65;;;;;;;;;;4390553;32;71492;-63
2022/11/22 01:58:40;;;;;;;16.80;9.55;;;;;;;;;;4390735;32;66078;-63
2022/11/22 02:01:28;;;;;;;15.70;10.30;;;;;;;;;;4380041;32;67574;-62
2022/11/22 02:04:16;;;;;;;19.27;9.77;;;;;;;;;;4387757;32;60390;-63
2022/11/22 02:07:12;;;;;;;18.10;9.63;;;;;;;;;;4401348;32;69474;-63
2022/11/22 02:09:59;;;;;;;11.55;7.78;;;;;;;;;;4413271;32;68844;-62
2022/11/22 02:12:45;;;;;;;13.88;8.23;;;;;;;;;;4401112;32;66821;-63
2022/11/22 02:15:32;;;;;;;14.50;8.20;;;;;;;;;;4390665;32;60080;-63
2022/11/22 02:18:19;;;;;;;14.27;7.82;;;;;;;;;;4387623;32;71881;-63
2022/11/22 02:21:06;;;;;;;13.05;7.40;;;;;;;;;;4401045;32;69381;-63
2022/11/22 02:24:12;;;;;;;12.02;6.62;;;;;;;;;;4376675;32;68692;-63
2022/11/22 02:26:58;;;;;;;12.27;7.18;;;;;;;;;;4400774;32;71691;-63
2022/11/22 02:29:45;;;;;;;11.63;6.80;;;;;;;;;;4401083;32;64711;-63
2022/11/22 02:32:32;;;;;;;11.48;5.20;;;;;;;;;;4400936;32;67669;-62
2022/11/22 02:35:21;;;;;;;10.70;5.78;;;;;;;;;;4390623;32;59255;-62
2022/11/22 02:38:14;;;;;;;10.50;5.60;;;;;;;;;;4400824;32;71696;-61
2022/11/22 02:41:10;;;;;;;8.93;5.45;;;;;;;;;;4400960;32;64839;-63
2022/11/22 02:43:56;;;;;;;10.35;5.07;;;;;;;;;;4379348;32;67816;-62
2022/11/22 02:46:52;;;;;;;8.77;5.22;;;;;;;;;;4387418;32;59946;-62
2022/11/22 02:49:38;;;;;;;8.35;4.68;;;;;;;;;;4391122;32;69571;-62
2022/11/22 02:52:25;;;;;;;11.43;4.95;;;;;;;;;;4415489;32;68915;-62
2022/11/22 02:55:11;;;;;;;10.43;5.40;;;;;;;;;;4382180;32;67667;-63
2022/11/22 02:57:58;;;;;;;9.63;4.75;;;;;;;;;;4379811;32;71375;-63
2022/11/22 03:00:45;;;;;;;10.85;6.30;;;;;;;;;;4382045;32;69534;-63
2022/11/22 03:03:32;;;;;;;8.68;5.32;;;;;;;;;;4392237;32;68382;-63
2022/11/22 03:06:19;;;;;;;8.60;5.03;;;;;;;;;;4392578;32;66857;-63
2022/11/22 03:09:06;;;;;;;8.63;4.97;;;;;;;;;;4403563;32;70897;-63
2022/11/22 03:11:53;;;;;;;9.48;6.20;;;;;;;;;;4404111;32;65683;-61
2022/11/22 03:14:39;;;;;;;14.82;6.90;;;;;;;;;;4390738;32;68819;-63
2022/11/22 03:17:26;;;;;;;;;;;;;;;;;;4404479;32;59262;-62
2022/11/22 03:20:13;;;;;;;11.40;6.50;;;;;;;;;;4404075;32;69913;-62
2022/11/22 03:23:00;;;;;;;;;;;;;;;;;;4380230;32;68871;-62
2022/11/22 03:25:46;;;;;;;14.50;7.78;;;;;;;;;;4392819;32;66765;-63
2022/11/22 03:28:33;;;;;;;13.70;7.12;;;;;;;;;;4403402;32;60141;-63
2022/11/22 03:31:20;;;;;;;14.38;7.78;;;;;;;;;;4389489;32;71115;-61
2022/11/22 03:34:06;;;;;;;12.80;7.65;;;;;;;;;;4392208;32;69688;-62
2022/11/22 03:36:53;;;;;;;11.98;7.85;;;;;;;;;;4415320;32;66853;-62
2022/11/22 03:39:39;;;;;;;12.48;7.12;;;;;;;;;;4392249;32;71778;-63
2022/11/22 03:42:26;;;;;;;12.50;6.28;;;;;;;;;;4392288;32;65052;-63
2022/11/22 03:45:12;;;;;;;36.50;6.95;;;;;;;;;;4402816;32;66975;-62
2022/11/22 03:47:59;;;;;;;9.70;5.22;;;;;;;;;;4392349;32;59051;-61
2022/11/22 03:50:46;;;;;;;13.07;5.55;;;;;;;;;;4402724;32;70716;-64
2022/11/22 03:53:33;;;;;;;9.20;5.28;;;;;;;;;;4392266;32;65527;-62
2022/11/22 03:56:20;;;;;;;9.23;5.12;;;;;;;;;;4378898;32;67319;-63
2022/11/22 03:59:06;;;;;;;12.10;5.68;;;;;;;;;;4402921;32;59958;-63
2022/11/22 04:01:53;;;;;;;9.80;5.35;;;;;;;;;;4391478;32;70724;-61
2022/11/22 04:04:40;;;;;;;10.43;5.57;;;;;;;;;;4402470;32;68239;-62
2022/11/22 04:07:26;;;;;;;10.70;5.78;;;;;;;;;;4380987;32;66711;-63
2022/11/22 04:10:13;;;;;;;12.27;5.68;;;;;;;;;;4391965;32;71566;-62
2022/11/22 04:13:00;;;;;;;11.05;5.57;;;;;;;;;;4392040;32;65039;-63
2022/11/22 04:15:46;;;;;;;;;;;;;;;;;;4414773;32;69376;-62
2022/11/22 04:18:33;;;;;;;12.25;5.28;;;;;;;;;;4402572;32;67663;-62
2022/11/22 04:21:35;;;;;;;7.72;5.05;;;;;;;;;;4389010;32;72173;-62
2022/11/22 04:27:27;;;;;;;11.70;5.00;;;;;;;;;;4404411;32;67113;-62
2022/11/22 04:30:13;;;;;;;11.10;5.30;;;;;;;;;;4391705;32;59616;-63
2022/11/22 04:33:00;;;;;;;11.55;5.43;;;;;;;;;;4380837;32;70506;-62
2022/11/22 04:35:47;;;;;;;9.00;5.55;;;;;;;;;;4391529;32;68786;-63
2022/11/22 04:38:34;;;;;;;15.77;5.85;;;;;;;;;;4378205;32;66951;-62
2022/11/22 04:41:20;;;;;;;10.75;5.30;;;;;;;;;;4391676;32;60436;-63
2022/11/22 04:53:52;;;;;;;9.27;4.97;;;;;;;;;;4415024;32;71735;-63
2022/11/22 04:56:39;;;;;;;8.70;5.25;;;;;;;;;;4403118;32;65035;-62
2022/11/22 04:59:25;;;;;;;11.88;6.07;;;;;;;;;;4401623;32;67014;-63
2022/11/22 05:02:12;;;;;;;9.55;5.80;;;;;;;;;;4402041;32;59265;-63
2022/11/22 05:04:58;;;;;;;8.85;5.32;;;;;;;;;;4401604;32;69684;-63
2022/11/22 05:07:45;;;;;;;10.15;5.97;;;;;;;;;;4399285;32;65898;-63
2022/11/22 05:10:55;;;;;;;11.02;5.60;;;;;;;;;;4391066;32;66586;-63
2022/11/22 05:13:40;;;;;;;10.30;5.07;;;;;;;;;;4404024;32;59251;-63
2022/11/22 05:16:27;;;;;;;10.57;5.60;;;;;;;;;;4390876;32;69607;-63
2022/11/22 05:19:13;;;;;;;12.15;6.53;;;;;;;;;;4377803;32;69919;-63
2022/11/22 05:22:03;;;;;;;10.20;6.37;;;;;;;;;;4401597;32;67427;-63
2022/11/22 05:24:49;;;;;;;12.30;6.72;;;;;;;;;;4388173;32;72257;-62
2022/11/22 05:27:36;;;;;;;13.02;6.25;;;;;;;;;;4391265;32;65952;-63
2022/11/22 05:30:22;;;;;;;12.75;6.60;;;;;;;;;;4390703;32;69166;-63
2022/11/22 05:35:06;;;;;;;17.15;7.45;;;;;;;;;;3847296;37;43603;-63
2022/11/22 05:37:52;;;;;;;17.62;8.95;;;;;;;;;;4410053;32;60152;-63
2022/11/22 05:40:39;;;;;;;16.80;7.32;;;;;;;;;;4376912;32;70822;-64
2022/11/22 05:43:27;;;;;;;17.08;8.50;;;;;;;;;;4409582;32;68513;-63
2022/11/22 05:46:15;;;;;;;14.02;8.13;;;;;;;;;;4387605;32;68292;-62
2022/11/22 05:49:02;;;;;;;18.95;8.75;;;;;;;;;;4410696;32;71679;-62
2022/11/22 05:51:49;;;;;;;14.93;8.27;;;;;;;;;;4409724;32;65970;-63
2022/11/22 05:54:35;;;;;;;11.45;6.28;;;;;;;;;;4398155;32;68070;-63
2022/11/22 05:57:22;;;;;;;;;;;;;;;;;;4411453;32;58912;-62
2022/11/22 06:00:09;;;;;;;21.58;10.13;;;;;;;;;;4409282;32;70918;-63
2022/11/22 06:03:02;;;;;;;9.00;5.65;;;;;;;;;;4371832;32;66456;-63
2022/11/22 06:05:52;;;;;;;10.65;6.18;;;;;;;;;;4395349;32;67633;-63
2022/11/22 06:08:40;;;;;;;19.15;8.25;;;;;;;;;;4383701;32;60120;-62
2022/11/22 06:11:27;;;;;;;20.67;10.13;;;;;;;;;;4393803;32;70651;-62
2022/11/22 06:14:14;;;;;;;19.67;8.82;;;;;;;;;;4372426;32;69746;-63
2022/11/22 06:17:00;;;;;;;19.62;10.05;;;;;;;;;;4361230;32;67845;-62
2022/11/22 06:19:47;;;;;;;18.87;9.50;;;;;;;;;;4382402;32;71523;-62
2022/11/22 06:22:33;;;;;;;12.20;7.20;;;;;;;;;;4394393;32;65498;-63
2022/11/22 06:25:20;;;;;;;16.92;8.35;;;;;;;;;;4372357;32;69563;-62
2022/11/22 06:28:07;;;;;;;13.62;8.05;;;;;;;;;;4395074;32;66627;-62
2022/11/22 06:30:53;;;;;;;12.15;6.82;;;;;;;;;;4371781;32;72088;-61
2022/11/22 06:33:40;;;;;;;15.85;9.98;;;;;;;;;;4382663;32;64795;-62
2022/11/22 06:36:29;;;;;;;13.77;8.10;;;;;;;;;;4371591;32;68096;-62
2022/11/22 06:39:16;;;;;;;17.20;9.77;;;;;;;;;;4393751;32;59156;-63
2022/11/22 06:42:02;;;;;;;13.98;7.65;;;;;;;;;;4371942;32;70284;-62
2022/11/22 06:44:50;;;;;;;16.20;9.43;;;;;;;;;;4368267;32;69327;-64
2022/11/22 06:47:36;;;;;;;19.20;10.25;;;;;;;;;;4383380;32;67651;-63
2022/11/22 06:50:23;;;;;;;17.10;10.13;;;;;;;;;;4383781;32;59925;-63
2022/11/22 10:05:50;;;;;;;12.48;5.65;;;;;;;;;;3868765;36;43691;-71
2022/11/22 10:08:57;;;;;;;11.15;5.32;;;;;;;;;;4390407;32;59047;-71
2022/11/22 10:11:55;;;;;;;13.15;5.28;;;;;;;;;;4414201;32;70743;-71
2022/11/22 10:15:01;;;;;;;15.68;6.15;;;;;;;;;;4411505;32;68288;-71
2022/11/22 10:18:01;;;;;;;11.60;4.78;;;;;;;;;;4401174;32;67116;-71
2022/11/22 10:20:48;;;;;;;6.80;4.32;;;;;;;;;;4414558;32;71442;-71
2022/11/22 10:23:35;;;;;;;11.90;5.10;;;;;;;;;;4415349;32;65741;-71
2022/11/22 10:26:28;;;;;;;;;;;;;;;;;;4416371;32;66582;-71
2022/11/22 10:29:22;;;;;;;10.68;5.32;;;;;;;;;;4416734;32;59985;-71
2022/11/22 10:32:20;;;;;;;11.52;5.55;;;;;;;;;;4412375;32;70577;-71
2022/11/22 10:35:21;;;;;;;12.55;6.07;;;;;;;;;;4413444;32;64999;-71
2022/11/22 10:38:41;;;;;;;11.25;4.97;;;;;;;;;;4402317;32;66243;-70
2022/11/22 10:41:41;;;;;;;10.85;6.10;;;;;;;;;;4405321;32;59399;-71
2022/11/22 10:44:49;;;;;;;10.77;5.57;;;;;;;;;;4428024;32;70645;-71
2022/11/22 10:47:43;;;;;;;10.77;5.95;;;;;;;;;;4415800;32;68587;-69
2022/11/22 10:50:58;;;;;;;13.68;6.47;;;;;;;;;;4415089;32;66268;-70
2022/11/22 10:54:06;;;;;;;11.02;6.20;;;;;;;;;;4401107;32;70520;-69
2022/11/22 10:57:03;;;;;;;11.55;5.00;;;;;;;;;;4414796;32;65924;-70
2022/11/22 11:00:11;;;;;;;11.12;5.03;;;;;;;;;;4401142;32;67727;-70
2022/11/22 11:03:14;;;;;;;12.63;4.80;;;;;;;;;;4412910;32;66558;-68
2022/11/22 11:06:12;;;;;;;9.38;5.45;;;;;;;;;;4402143;32;70397;-71
2022/11/22 11:09:00;;;;;;;;;;;;;;;;;;4428173;32;65776;-71
2022/11/22 11:11:48;;;;;;;10.63;5.18;;;;;;;;;;4404544;32;67376;-70
2022/11/22 11:14:39;;;;;;;12.37;5.75;;;;;;;;;;4414905;32;60415;-71
2022/11/22 11:17:36;;;;;;;10.52;5.12;;;;;;;;;;4369844;32;69207;-70
2022/11/22 11:20:30;;;;;;;10.73;6.15;;;;;;;;;;4401422;32;68342;-70
2022/11/22 11:23:16;;;;;;;12.18;6.32;;;;;;;;;;4381154;32;65993;-69
2022/11/22 11:26:25;;;;;;;11.52;5.68;;;;;;;;;;4391379;32;59061;-70
2022/11/22 11:29:17;;;;;;;11.73;6.53;;;;;;;;;;4416303;32;70774;-71
2022/11/22 11:32:15;;;;;;;13.00;6.53;;;;;;;;;;4404005;32;69329;-71
2022/11/22 11:35:04;;;;;;;13.93;5.57;;;;;;;;;;4416146;32;67217;-70
2022/11/22 11:37:51;;;;;;;12.70;5.75;;;;;;;;;;4393461;32;70673;-70
2022/11/22 11:40:38;;;;;;;12.20;5.65;;;;;;;;;;4390592;32;63509;-70
2022/11/22 11:43:25;;;;;;;12.43;6.43;;;;;;;;;;4393336;32;66696;-71
2022/11/22 11:46:40;;;;;;;10.85;5.93;;;;;;;;;;4392928;32;59269;-70
2022/11/22 11:49:33;;;;;;;11.80;6.50;;;;;;;;;;4400330;32;70080;-71
2022/11/22 11:52:21;;;;;;;11.52;5.65;;;;;;;;;;4392653;32;66195;-70
2022/11/22 11:55:16;;;;;;;8.73;5.47;;;;;;;;;;4393062;32;67196;-71
2022/11/22 11:58:17;;;;;;;15.45;6.00;;;;;;;;;;4404738;32;59061;-71
2022/11/22 12:01:10;;;;;;;13.15;5.78;;;;;;;;;;4391187;32;71766;-70
2022/11/22 12:04:03;;;;;;;12.52;6.35;;;;;;;;;;4394032;32;68101;-71
2022/11/22 12:06:59;;;;;;;10.40;5.70;;;;;;;;;;4405434;32;66841;-70
2022/11/22 12:09:48;;;;;;;11.45;6.35;;;;;;;;;;4392892;32;72336;-71
2022/11/22 12:12:48;;;;;;;11.85;6.40;;;;;;;;;;4405992;32;64825;-71
2022/11/22 12:16:03;;;;;;;13.70;6.25;;;;;;;;;;4391884;32;68302;-70
2022/11/22 12:19:35;;;;;;;9.30;5.00;;;;;;;;;;4393889;32;66834;-71
2022/11/22 12:22:33;;;;;;;13.52;6.40;;;;;;;;;;4418024;32;71762;-70
2022/11/22 12:25:32;;;;;;;13.13;6.18;;;;;;;;;;4394330;32;65257;-68
2022/11/22 12:28:21;;;;;;;14.23;6.87;;;;;;;;;;4403596;32;66536;-69
2022/11/22 12:31:24;;;;;;;9.07;5.25;;;;;;;;;;4404312;32;59156;-70
2022/11/22 12:34:24;;;;;;;12.30;6.00;;;;;;;;;;4405116;32;70453;-70
2022/11/22 12:37:18;;;;;;;12.00;5.53;;;;;;;;;;4405944;32;69196;-70
2022/11/22 12:40:18;;;;;;;10.60;5.32;;;;;;;;;;4394812;32;67676;-69
2022/11/22 12:43:11;;;;;;;9.40;5.25;;;;;;;;;;4417448;32;58857;-69
2022/11/22 12:46:04;;;;;;;9.95;5.37;;;;;;;;;;4405042;32;69339;-70
2022/11/22 12:48:57;;;;;;;14.40;5.85;;;;;;;;;;4403935;32;69717;-70
2022/11/22 12:51:55;;;;;;;12.48;5.12;;;;;;;;;;4405159;32;67523;-68
2022/11/22 12:55:14;;;;;;;9.38;4.85;;;;;;;;;;4382149;32;71841;-69
2022/11/22 12:58:41;;;;;;;12.70;5.43;;;;;;;;;;4388497;32;65075;-69
2022/11/22 13:01:51;;;;;;;13.40;5.85;;;;;;;;;;4415998;32;66740;-69
2022/11/22 13:04:48;;;;;;;11.10;5.70;;;;;;;;;;4388916;32;59230;-71
2022/11/22 13:07:50;;;;;;;10.18;5.18;;;;;;;;;;4399930;32;69706;-70
2022/11/22 13:10:53;;;;;;;9.63;4.37;;;;;;;;;;4398393;32;64825;-67
2022/11/22 13:13:44;;;;;;;10.20;4.93;;;;;;;;;;4387835;32;67654;-70
2022/11/22 13:16:31;;;;;;;10.77;5.37;;;;;;;;;;4387444;32;60396;-70
2022/11/22 13:19:18;;;;;;;;;;;;;;;;;;4386342;32;71613;-69
2022/11/22 13:22:15;;;;;;;8.70;5.32;;;;;;;;;;4397652;32;69425;-71
2022/11/22 13:25:40;;;;;;;10.32;5.10;;;;;;;;;;4398242;32;67208;-68
2022/11/22 13:28:31;;;;;;;14.43;5.82;;;;;;;;;;4365575;32;70763;-70
2022/11/22 13:31:19;;;;;;;12.75;5.18;;;;;;;;;;4355147;32;65887;-68
2022/11/22 13:34:23;;;;;;;8.00;4.90;;;;;;;;;;4392965;32;67480;-68
2022/11/22 13:37:11;;;;;;;11.18;5.28;;;;;;;;;;4398383;32;67516;-68
2022/11/22 13:40:14;;;;;;;9.93;5.20;;;;;;;;;;4396819;32;70621;-69
2022/11/22 13:43:16;;;;;;;14.20;5.45;;;;;;;;;;4399141;32;66042;-68
2022/11/22 13:46:04;;;;;;;10.50;5.68;;;;;;;;;;4398236;32;66770;-68
2022/11/22 13:49:12;;;;;;;11.98;5.55;;;;;;;;;;4397001;32;60399;-68
2022/11/22 13:52:00;;;;;;;10.27;6.05;;;;;;;;;;4386107;32;70198;-67
2022/11/22 13:54:46;;;;;;;8.52;5.43;;;;;;;;;;4387005;32;69836;-69
2022/11/22 13:57:39;;;;;;;;;;;;;;;;;;4386963;32;68829;-68
2022/11/22 14:00:31;;;;;;;9.75;5.53;;;;;;;;;;4390911;32;71818;-68
2022/11/22 14:03:34;;;;;;;8.60;4.72;;;;;;;;;;4392688;32;70335;-67
2022/11/22 14:06:30;;;;;;;9.63;5.53;;;;;;;;;;4375969;32;68346;-68
2022/11/22 14:09:35;;;;;;;11.05;5.90;;;;;;;;;;4382313;32;67798;-69
2022/11/22 14:12:44;;;;;;;9.60;5.15;;;;;;;;;;4370388;32;71080;-69
2022/11/22 14:15:33;;;;;;;10.55;5.60;;;;;;;;;;4382261;32;64733;-69
2022/11/22 14:18:44;;;;;;;10.05;5.72;;;;;;;;;;4360234;32;68303;-67
2022/11/22 14:21:54;;;;;;;10.05;5.37;;;;;;;;;;4381911;32;60420;-67
2022/11/22 14:25:12;;;;;;;11.05;5.40;;;;;;;;;;4360620;32;69655;-66
2022/11/22 14:28:23;;;;;;;10.30;5.40;;;;;;;;;;4381292;32;69126;-68
2022/11/22 14:31:40;;;;;;;12.60;5.90;;;;;;;;;;4370454;32;68339;-69
2022/11/22 14:34:29;;;;;;;10.70;5.87;;;;;;;;;;4382923;32;59958;-70
2022/11/22 14:37:15;;;;;;;13.73;5.28;;;;;;;;;;4370642;32;69657;-71
2022/11/22 14:40:07;;;;;;;11.35;5.57;;;;;;;;;;4382712;32;69619;-70
2022/11/22 14:42:58;;;;;;;13.25;6.30;;;;;;;;;;4383537;32;67737;-71
2022/11/22 14:45:50;;;;;;;11.68;5.68;;;;;;;;;;4370962;32;70740;-71
2022/11/22 14:48:45;;;;;;;13.35;5.47;;;;;;;;;;4371500;32;65962;-71
2022/11/22 14:51:32;;;;;;;10.98;5.95;;;;;;;;;;4384611;32;67644;-71
2022/11/22 14:54:22;;;;;;;9.10;5.55;;;;;;;;;;4384323;32;60152;-72
2022/11/22 14:57:14;;;;;;;10.90;6.32;;;;;;;;;;4383899;32;70666;-72
2022/11/22 15:00:13;;;;;;;11.45;6.15;;;;;;;;;;4373058;32;66815;-72
2022/11/22 15:03:31;;;;;;;13.02;6.10;;;;;;;;;;4383708;32;67060;-72
2022/11/22 15:06:25;;;;;;;13.50;6.28;;;;;;;;;;4384952;32;60454;-70
2022/11/22 15:09:39;;;;;;;11.30;5.72;;;;;;;;;;4361963;32;70239;-70
2022/11/22 15:13:03;;;;;;;12.75;5.62;;;;;;;;;;4372470;32;70038;-70
2022/11/22 15:15:50;;;;;;;14.57;5.97;;;;;;;;;;4383544;32;67756;-71
2022/11/22 15:18:42;;;;;;;10.30;5.78;;;;;;;;;;4385020;32;71787;-71
2022/11/22 15:21:31;;;;;;;10.57;5.87;;;;;;;;;;4372889;32;68524;-71
2022/11/22 15:24:30;;;;;;;14.20;5.85;;;;;;;;;;3847594;37;43134;-71
2022/11/22 15:27:42;;;;;;;11.90;5.32;;;;;;;;;;4410067;32;60048;-72
2022/11/22 15:30:29;;;;;;;12.63;5.93;;;;;;;;;;4398785;32;71247;-71
2022/11/22 15:33:35;;;;;;;10.15;5.22;;;;;;;;;;4398975;32;68434;-71
2022/11/22 15:36:41;;;;;;;4.07;2.15;;;;;;;;;;4409870;32;66734;-72
2022/11/22 15:39:30;;;;;;;11.27;6.28;;;;;;;;;;4399609;32;71661;-71
2022/11/22 15:42:17;;;;;;;14.70;5.87;;;;;;;;;;4399465;32;66243;-71
2022/11/22 15:45:05;;;;;;;10.85;5.37;;;;;;;;;;4399205;32;65924;-71
2022/11/22 15:48:09;;;;;;;11.82;6.03;;;;;;;;;;4398516;32;59787;-71
2022/11/22 15:51:12;;;;;;;11.63;5.93;;;;;;;;;;4398100;32;71310;-71
2022/11/22 15:54:02;;;;;;;10.38;5.35;;;;;;;;;;4410563;32;65913;-71
2022/11/22 15:57:02;;;;;;;10.05;5.57;;;;;;;;;;4409603;32;68275;-71
2022/11/22 15:59:49;;;;;;;12.07;6.03;;;;;;;;;;4409662;32;60365;-71
2022/11/22 16:02:38;;;;;;;9.07;5.00;;;;;;;;;;4409361;32;70659;-71
2022/11/22 16:05:33;;;;;;;11.02;5.18;;;;;;;;;;4382825;32;70288;-71
2022/11/22 16:08:19;;;;;;;12.52;5.68;;;;;;;;;;4395142;32;66749;-71
2022/11/22 16:11:06;;;;;;;11.65;5.90;;;;;;;;;;4395313;32;71652;-71
2022/11/22 16:13:53;;;;;;;12.65;5.68;;;;;;;;;;4394274;32;65135;-71
2022/11/22 16:16:39;;;;;;;9.70;5.40;;;;;;;;;;4393831;32;69438;-71
2022/11/22 16:19:26;;;;;;;12.27;6.00;;;;;;;;;;4393945;32;67608;-71
2022/11/22 16:22:32;;;;;;;9.15;5.95;;;;;;;;;;4393496;32;71770;-72
2022/11/22 16:25:33;;;;;;;10.85;6.00;;;;;;;;;;4393825;32;64938;-71
2022/11/22 16:28:32;;;;;;;7.72;4.97;;;;;;;;;;4393815;32;67401;-71
2022/11/22 16:31:23;;;;;;;8.95;4.85;;;;;;;;;;4383308;32;59080;-71
2022/11/22 16:34:12;;;;;;;12.05;5.57;;;;;;;;;;4389331;32;70758;-71
2022/11/22 16:36:58;;;;;;;10.40;5.50;;;;;;;;;;4372892;32;69251;-72
2022/11/22 16:39:45;;;;;;;8.23;5.15;;;;;;;;;;4372691;32;66979;-71
2022/11/22 16:42:32;;;;;;;10.18;5.25;;;;;;;;;;4372648;32;60679;-71
2022/11/22 16:45:19;;;;;;;;;;;;;;;;;;4383536;32;69739;-70
2022/11/22 16:48:14;;;;;;;9.65;5.22;;;;;;;;;;4372714;32;69751;-71
2022/11/22 16:51:06;;;;;;;11.43;5.70;;;;;;;;;;4383208;32;67346;-71
2022/11/22 16:53:53;;;;;;;13.32;5.70;;;;;;;;;;4372090;32;72582;-71
2022/11/22 16:56:40;;;;;;;10.85;4.87;;;;;;;;;;4372004;32;66747;-71
2022/11/22 16:59:26;;;;;;;9.48;5.60;;;;;;;;;;4383412;32;67925;-71
2022/11/22 17:02:15;;;;;;;9.25;5.70;;;;;;;;;;4372870;32;60470;-71
2022/11/22 17:05:03;;;;;;;8.63;4.82;;;;;;;;;;4371987;32;71251;-71
2022/11/22 17:07:50;;;;;;;9.13;4.95;;;;;;;;;;4383300;32;65952;-71
2022/11/22 17:10:37;;;;;;;10.05;5.12;;;;;;;;;;4372889;32;66672;-72
2022/11/22 17:13:26;;;;;;;8.35;4.85;;;;;;;;;;4383678;32;59464;-71
2022/11/22 17:16:13;;;;;;;9.43;5.40;;;;;;;;;;4372639;32;69740;-71
2022/11/22 17:19:00;;;;;;;9.25;5.40;;;;;;;;;;4372530;32;68637;-71
2022/11/22 17:21:46;;;;;;;7.93;4.47;;;;;;;;;;4361852;32;67604;-72
2022/11/22 17:24:33;;;;;;;10.20;4.95;;;;;;;;;;4372296;32;71536;-71
2022/11/22 17:27:20;;;;;;;9.90;5.78;;;;;;;;;;4372194;32;63481;-71
2022/11/22 17:30:07;;;;;;;11.35;5.68;;;;;;;;;;4371981;32;68296;-70
2022/11/22 17:32:54;;;;;;;10.55;5.35;;;;;;;;;;4384188;32;65377;-71
2022/11/22 17:35:41;;;;;;;8.75;4.82;;;;;;;;;;4382227;32;71500;-71
2022/11/22 17:38:27;;;;;;;10.40;5.62;;;;;;;;;;4371755;32;64515;-70
2022/11/22 17:41:14;;;;;;;10.15;6.00;;;;;;;;;;4372772;32;67519;-71
2022/11/22 17:44:01;;;;;;;10.90;5.25;;;;;;;;;;4371862;32;60828;-71
2022/11/22 17:46:48;;;;;;;9.10;5.45;;;;;;;;;;4382138;32;69711;-72
2022/11/22 17:49:35;;;;;;;8.23;4.93;;;;;;;;;;4383451;32;69124;-71
2022/11/22 17:52:22;;;;;;;12.05;5.45;;;;;;;;;;4372869;32;67594;-69
2022/11/22 17:55:09;;;;;;;6.45;3.65;;;;;;;;;;4384024;32;60198;-71
2022/11/22 17:57:56;;;;;;;8.15;4.85;;;;;;;;;;4382560;32;70473;-70
2022/11/22 18:00:42;;;;;;;;;;;;;;;;;;4384104;32;68372;-71
2022/11/22 18:03:29;;;;;;;9.57;5.30;;;;;;;;;;4382855;32;67719;-70
2022/11/22 18:06:16;;;;;;;8.60;4.22;;;;;;;;;;4382466;32;71850;-71
2022/11/22 18:09:03;;;;;;;7.65;4.18;;;;;;;;;;4371825;32;64919;-71
2022/11/22 18:11:50;;;;;;;9.13;4.97;;;;;;;;;;4360906;32;67038;-72
2022/11/22 18:14:37;;;;;;;9.55;4.80;;;;;;;;;;4360716;32;60941;-72
2022/11/22 18:17:24;;;;;;;7.50;4.72;;;;;;;;;;4382165;32;70729;-71
2022/11/22 18:20:11;;;;;;;8.38;4.53;;;;;;;;;;4382627;32;65986;-71
2022/11/22 18:22:57;;;;;;;8.90;5.22;;;;;;;;;;4383345;32;67436;-71
2022/11/22 18:25:44;;;;;;;;;;;;;;;;;;4383041;32;59790;-71
2022/11/22 18:28:30;;;;;;;8.10;4.53;;;;;;;;;;4371850;32;70180;-71
2022/11/22 18:31:17;;;;;;;8.85;5.00;;;;;;;;;;4371448;32;68191;-71
2022/11/22 18:34:04;;;;;;;7.25;4.53;;;;;;;;;;4371423;32;67907;-71
2022/11/22 18:36:52;;;;;;;8.48;4.78;;;;;;;;;;4360207;32;72341;-71
2022/11/22 18:39:39;;;;;;;;;;;;;;;;;;4382521;32;65949;-71
2022/11/22 18:42:25;;;;;;;9.80;4.45;;;;;;;;;;4371758;32;67074;-72
2022/11/22 18:45:12;;;;;;;9.13;4.70;;;;;;;;;;4383273;32;66687;-71
2022/11/22 18:48:01;;;;;;;10.93;5.80;;;;;;;;;;4371271;32;71838;-72
2022/11/22 18:50:47;;;;;;;8.55;4.68;;;;;;;;;;4383303;32;66348;-71
2022/11/22 18:53:36;;;;;;;8.45;5.40;;;;;;;;;;4371338;32;66748;-71
2022/11/22 18:56:22;;;;;;;7.95;4.25;;;;;;;;;;4371548;32;60791;-71
2022/11/22 18:59:13;;;;;;;7.75;3.80;;;;;;;;;;4381462;32;71148;-71
2022/11/22 19:02:00;;;;;;;9.88;5.25;;;;;;;;;;4370800;32;68863;-71
2022/11/22 19:04:48;;;;;;;9.70;5.18;;;;;;;;;;4382040;32;67424;-72
2022/11/22 19:07:34;;;;;;;7.62;5.03;;;;;;;;;;4383219;32;71555;-71
2022/11/22 19:10:21;;;;;;;;;;;;;;;;;;4381995;32;70664;-72
2022/11/22 19:13:07;;;;;;;8.50;3.80;;;;;;;;;;4371169;32;69673;-71
2022/11/22 19:15:54;;;;;;;8.55;4.93;;;;;;;;;;4382951;32;67497;-71
2022/11/22 19:18:41;;;;;;;9.20;5.55;;;;;;;;;;4371032;32;71938;-72
2022/11/22 19:21:28;;;;;;;10.32;5.30;;;;;;;;;;4371166;32;66266;-71
2022/11/22 19:24:15;;;;;;;9.50;5.03;;;;;;;;;;4369964;32;67051;-71
2022/11/22 19:27:02;;;;;;;10.00;5.05;;;;;;;;;;4359880;32;59989;-71
2022/11/22 19:29:48;;;;;;;8.25;4.57;;;;;;;;;;4370337;32;70367;-72
2022/11/22 19:32:35;;;;;;;11.30;5.47;;;;;;;;;;4370991;32;69122;-72
2022/11/22 19:35:22;;;;;;;8.65;5.20;;;;;;;;;;4370888;32;67531;-71
2022/11/22 19:38:09;;;;;;;8.60;5.43;;;;;;;;;;4371265;32;60351;-71
2022/11/22 19:40:56;;;;;;;;;;;;;;;;;;4370985;32;70681;-72
2022/11/22 19:43:42;;;;;;;10.98;4.97;;;;;;;;;;4381460;32;69393;-71
2022/11/22 19:46:30;;;;;;;7.62;4.90;;;;;;;;;;4381356;32;66669;-71
2022/11/22 19:49:17;;;;;;;10.35;5.37;;;;;;;;;;4370587;32;70698;-71
2022/11/22 19:52:04;;;;;;;9.13;4.87;;;;;;;;;;4381368;32;66041;-71
2022/11/22 19:54:51;;;;;;;8.82;5.07;;;;;;;;;;4380885;32;68090;-71
2022/11/22 19:57:37;;;;;;;10.32;5.87;;;;;;;;;;4380925;32;61073;-71
2022/11/22 20:00:24;;;;;;;6.68;4.50;;;;;;;;;;4370425;32;72128;-71
2022/11/22 20:03:12;;;;;;;10.18;5.30;;;;;;;;;;4370451;32;64987;-71
2022/11/22 20:06:00;;;;;;;9.55;4.90;;;;;;;;;;4370112;32;68285;-71
2022/11/22 20:08:47;;;;;;;8.98;4.85;;;;;;;;;;4371017;32;59302;-71
2022/11/22 20:11:34;;;;;;;10.00;5.30;;;;;;;;;;4373045;32;70594;-72
2022/11/22 20:14:20;;;;;;;10.80;5.22;;;;;;;;;;4384822;32;68381;-71
2022/11/22 20:17:07;;;;;;;9.07;4.97;;;;;;;;;;4383669;32;66668;-70
2022/11/22 20:19:53;;;;;;;12.40;5.43;;;;;;;;;;4373312;32;70819;-71
2022/11/22 20:22:40;;;;;;;9.73;5.15;;;;;;;;;;4383153;32;70762;-71
2022/11/22 20:25:27;;;;;;;8.30;5.12;;;;;;;;;;4383667;32;69299;-72
2022/11/22 20:28:13;;;;;;;11.23;5.28;;;;;;;;;;4385039;32;67772;-71
2022/11/22 20:31:07;;;;;;;;;;;;;;;;;;4383712;32;71749;-71